createdAt,value
2023-08-22T00:01:28.027Z,10.55
2023-08-22T00:03:58.271Z,8.55
2023-08-22T00:06:26.852Z,7.40
2023-08-22T00:08:55.162Z,9.13
2023-08-22T00:11:23.312Z,7.97
2023-08-22T00:13:52.782Z,8.20
2023-08-22T00:16:20.952Z,7.85
2023-08-22T00:18:49.096Z,8.07
2023-08-22T00:21:17.148Z,8.57
2023-08-22T00:23:45.258Z,8.80
2023-08-22T00:26:13.311Z,8.00
2023-08-22T00:28:41.566Z,7.55
2023-08-22T00:31:11.014Z,10.05
2023-08-22T00:33:39.083Z,9.18
2023-08-22T00:36:07.517Z,7.43
2023-08-22T00:38:35.590Z,7.93
2023-08-22T00:41:03.704Z,8.25
2023-08-22T00:43:31.795Z,8.88
2023-08-22T00:46:00.164Z,15.25
2023-08-22T00:48:30.177Z,6.93
2023-08-22T00:50:58.815Z,8.13
2023-08-22T00:53:27.192Z,12.32
2023-08-22T00:55:55.556Z,5.85
2023-08-22T00:58:25.156Z,6.32
2023-08-22T01:00:53.397Z,8.15
2023-08-22T01:03:21.644Z,8.00
2023-08-22T01:05:57.097Z,4.70
2023-08-22T01:08:31.247Z,5.55
2023-08-22T01:11:08.370Z,8.73
2023-08-22T01:13:39.528Z,9.82
2023-08-22T01:16:08.479Z,5.53
2023-08-22T01:18:37.356Z,6.28
2023-08-22T01:21:07.562Z,6.32
2023-08-22T01:23:36.988Z,6.53
2023-08-22T01:26:05.386Z,9.48
2023-08-22T01:28:39.219Z,6.60
2023-08-22T01:31:14.461Z,5.43
2023-08-22T01:33:52.012Z,10.63
2023-08-22T01:36:22.339Z,10.52
2023-08-22T01:38:53.175Z,7.75
2023-08-22T01:41:22.912Z,7.22
2023-08-22T01:43:52.751Z,6.00
2023-08-22T01:46:21.569Z,7.47
2023-08-22T01:48:49.803Z,6.15
2023-08-22T01:51:18.066Z,7.05
2023-08-22T01:53:46.213Z,8.10
2023-08-22T01:56:15.818Z,5.55
2023-08-22T01:58:43.960Z,5.55
2023-08-22T02:01:12.754Z,9.55
2023-08-22T02:03:41.673Z,5.97
2023-08-22T02:06:10.318Z,8.90
2023-08-22T02:08:39.490Z,6.68
2023-08-22T02:11:07.570Z,6.43
2023-08-22T02:13:37.066Z,6.20
2023-08-22T02:16:05.200Z,6.85
2023-08-22T02:18:34.580Z,7.50
2023-08-22T02:21:03.758Z,7.43
2023-08-22T02:23:33.465Z,7.47
2023-08-22T02:26:01.555Z,6.72
2023-08-22T02:28:29.613Z,8.27
2023-08-22T02:30:59.573Z,7.50
2023-08-22T02:33:27.670Z,7.22
2023-08-22T02:35:55.938Z,5.68
2023-08-22T02:38:24.312Z,7.57
2023-08-22T02:40:52.368Z,6.45
2023-08-22T02:43:20.440Z,8.88
2023-08-22T02:45:48.883Z,7.63
2023-08-22T02:48:18.353Z,6.10
2023-08-22T02:50:46.431Z,8.52
2023-08-22T02:53:16.361Z,6.68
2023-08-22T02:55:48.442Z,9.18
2023-08-22T02:58:16.537Z,8.27
2023-08-22T03:00:47.312Z,5.65
2023-08-22T03:03:15.743Z,7.60
2023-08-22T03:05:45.189Z,6.05
2023-08-22T03:08:13.889Z,9.48
2023-08-22T03:10:42.416Z,9.15
2023-08-22T03:13:10.578Z,8.85
2023-08-22T03:15:38.912Z,8.07
2023-08-22T03:18:07.297Z,7.65
2023-08-22T03:20:35.379Z,10.05
2023-08-22T03:23:07.387Z,10.55
2023-08-22T03:25:35.614Z,12.02
2023-08-22T03:28:03.668Z,9.73
2023-08-22T03:30:31.784Z,9.10
2023-08-22T03:32:59.799Z,8.95
2023-08-22T03:35:27.991Z,10.95
2023-08-22T03:37:56.079Z,8.57
2023-08-22T03:40:25.700Z,7.32
2023-08-22T03:42:53.732Z,6.78
2023-08-22T03:45:21.929Z,9.70
2023-08-22T03:47:49.984Z,11.73
2023-08-22T03:50:18.206Z,10.15
2023-08-22T03:52:46.252Z,9.10
2023-08-22T03:55:14.294Z,8.63
2023-08-22T03:57:43.812Z,11.10
2023-08-22T04:00:13.542Z,10.10
2023-08-22T04:02:41.619Z,11.70
2023-08-22T04:05:10.041Z,10.07
2023-08-22T04:07:38.176Z,9.07
2023-08-22T04:10:07.184Z,10.88
2023-08-22T04:12:35.328Z,10.02
2023-08-22T04:15:05.276Z,8.27
2023-08-22T04:17:33.348Z,9.90
2023-08-22T04:20:01.435Z,10.80
2023-08-22T04:22:31.909Z,10.43
2023-08-22T04:24:59.991Z,11.63
2023-08-22T04:27:28.185Z,11.88
2023-08-22T04:29:56.697Z,11.00
2023-08-22T04:32:26.178Z,11.57
2023-08-22T04:34:54.389Z,12.18
2023-08-22T04:37:23.302Z,12.48
2023-08-22T04:39:51.301Z,11.40
2023-08-22T04:42:19.266Z,10.43
2023-08-22T04:44:47.410Z,9.80
2023-08-22T04:47:15.493Z,11.65
2023-08-22T04:49:44.952Z,14.30
2023-08-22T04:52:13.039Z,13.55
2023-08-22T04:54:41.175Z,15.77
2023-08-22T04:57:09.645Z,16.60
2023-08-22T04:59:38.263Z,14.68
2023-08-22T05:02:06.646Z,18.55
2023-08-22T05:04:34.758Z,13.65
2023-08-22T05:07:04.187Z,18.70
2023-08-22T05:09:32.546Z,19.88
2023-08-22T05:12:00.598Z,16.45
2023-08-22T05:14:29.116Z,21.52
2023-08-22T05:16:57.296Z,21.23
2023-08-22T05:19:25.503Z,25.60
2023-08-22T05:21:53.548Z,22.95
2023-08-22T05:24:22.915Z,23.90
2023-08-22T05:26:51.030Z,25.15
2023-08-22T05:29:21.691Z,29.58
2023-08-22T05:31:49.776Z,34.35
2023-08-22T05:34:17.832Z,26.80
2023-08-22T05:36:45.963Z,28.65
2023-08-22T05:39:14.001Z,30.77
2023-08-22T05:41:43.388Z,25.90
2023-08-22T05:44:11.370Z,32.58
2023-08-22T05:46:39.348Z,28.40
2023-08-22T05:49:07.369Z,35.60
2023-08-22T05:51:35.377Z,29.17
2023-08-22T05:54:03.439Z,27.60
2023-08-22T05:56:31.505Z,27.77
2023-08-22T05:59:00.929Z,25.38
2023-08-22T06:01:29.111Z,30.55
2023-08-22T06:03:57.372Z,29.75
2023-08-22T06:06:25.559Z,31.33
2023-08-22T06:08:53.607Z,32.08
2023-08-22T06:11:21.660Z,36.67
2023-08-22T06:13:51.430Z,35.15
2023-08-22T06:16:20.881Z,34.17
2023-08-22T06:18:48.994Z,30.42
2023-08-22T06:21:17.018Z,37.60
2023-08-22T06:23:45.225Z,26.20
2023-08-22T06:26:14.396Z,30.95
2023-08-22T06:28:42.453Z,31.58
2023-08-22T06:31:10.622Z,29.52
2023-08-22T06:33:40.137Z,26.80
2023-08-22T06:36:08.810Z,31.70
2023-08-22T06:38:36.879Z,31.45
2023-08-22T06:41:06.236Z,27.98
2023-08-22T06:43:34.645Z,24.33
2023-08-22T06:46:03.057Z,25.63
2023-08-22T06:48:40.686Z,26.70
2023-08-22T06:51:11.080Z,27.85
2023-08-22T06:53:39.343Z,24.23
2023-08-22T06:56:07.449Z,27.85
2023-08-22T06:58:35.440Z,26.17
2023-08-22T07:01:07.354Z,30.35
2023-08-22T07:03:35.472Z,28.85
2023-08-22T07:06:03.599Z,27.20
2023-08-22T07:08:32.984Z,24.25
2023-08-22T07:11:03.652Z,25.60
2023-08-22T07:13:31.817Z,25.08
2023-08-22T07:16:00.149Z,26.55
2023-08-22T07:18:29.896Z,24.05
2023-08-22T07:20:58.011Z,21.33
2023-08-22T07:23:26.135Z,23.92
2023-08-22T07:25:55.547Z,22.00
2023-08-22T07:28:23.571Z,23.38
2023-08-22T07:30:51.670Z,24.63
2023-08-22T07:33:19.893Z,21.67
2023-08-22T07:35:48.276Z,18.45
2023-08-22T07:38:16.261Z,20.48
2023-08-22T07:40:44.360Z,18.30
2023-08-22T07:43:13.816Z,18.45
2023-08-22T07:45:41.948Z,18.33
2023-08-22T07:48:10.093Z,17.80
2023-08-22T07:50:38.341Z,17.67
2023-08-22T07:53:07.968Z,15.68
2023-08-22T07:55:36.076Z,13.55
2023-08-22T07:58:04.157Z,14.90
2023-08-22T08:00:34.268Z,14.48
2023-08-22T08:03:03.127Z,15.02
2023-08-22T08:05:31.258Z,12.35
2023-08-22T08:07:59.323Z,13.70
2023-08-22T08:10:27.418Z,12.82
2023-08-22T08:12:55.647Z,13.35
2023-08-22T08:15:23.826Z,12.38
2023-08-22T08:17:53.678Z,12.88
2023-08-22T08:20:22.315Z,13.68
2023-08-22T08:22:50.354Z,12.73
2023-08-22T08:25:18.816Z,8.73
2023-08-22T08:27:49.879Z,10.80
2023-08-22T08:30:19.223Z,14.18
2023-08-22T08:32:47.600Z,11.00
2023-08-22T08:35:17.630Z,11.15
2023-08-22T08:37:48.164Z,11.20
2023-08-22T08:40:16.739Z,16.92
2023-08-22T08:42:46.616Z,10.88
2023-08-22T08:45:16.910Z,11.30
2023-08-22T08:47:46.071Z,11.38
2023-08-22T08:50:14.485Z,11.60
2023-08-22T08:52:46.480Z,9.75
2023-08-22T08:57:42.872Z,7.63
2023-08-22T09:00:12.194Z,5.53
2023-08-22T09:02:40.452Z,7.72
2023-08-22T09:05:11.920Z,7.95
2023-08-22T09:07:40.672Z,9.70
2023-08-22T09:10:10.745Z,7.75
2023-08-22T09:12:41.068Z,9.57
2023-08-22T09:15:11.103Z,6.70
2023-08-22T09:17:39.389Z,7.53
2023-08-22T09:20:11.759Z,9.40
2023-08-22T09:22:40.515Z,9.77
2023-08-22T09:25:12.025Z,8.88
2023-08-22T09:27:40.416Z,7.65
2023-08-22T09:30:09.305Z,8.57
2023-08-22T09:32:37.317Z,6.32
2023-08-22T09:35:07.348Z,11.02
2023-08-22T09:37:36.506Z,9.20
2023-08-22T09:40:10.254Z,13.63
2023-08-22T09:42:41.388Z,12.45
2023-08-22T09:45:11.899Z,12.55
2023-08-22T09:47:44.834Z,11.18
2023-08-22T09:50:17.857Z,9.23
2023-08-22T09:52:47.127Z,9.65
2023-08-22T09:55:16.627Z,10.68
2023-08-22T09:57:46.980Z,10.82
2023-08-22T10:00:16.312Z,12.70
2023-08-22T10:02:45.350Z,11.05
2023-08-22T10:05:15.525Z,11.95
2023-08-22T10:07:43.796Z,10.13
2023-08-22T10:10:12.334Z,9.95
2023-08-22T10:12:41.719Z,10.05
2023-08-22T10:15:16.343Z,8.45
2023-08-22T10:17:46.485Z,10.25
2023-08-22T10:20:17.105Z,9.60
2023-08-22T10:22:45.360Z,10.23
2023-08-22T10:25:13.477Z,9.05
2023-08-22T10:27:48.061Z,8.75
2023-08-22T10:30:22.033Z,9.40
2023-08-22T10:33:17.036Z,9.57
2023-08-22T10:36:04.867Z,8.52
2023-08-22T10:38:54.471Z,9.77
2023-08-22T10:41:25.660Z,6.90
2023-08-22T10:43:57.603Z,7.87
2023-08-22T10:46:58.663Z,9.02
2023-08-22T10:49:30.697Z,11.20
2023-08-22T10:52:07.974Z,6.63
2023-08-22T10:54:36.234Z,7.03
2023-08-22T10:57:20.532Z,6.93
2023-08-22T11:00:08.694Z,5.88
2023-08-22T11:02:38.751Z,10.15
2023-08-22T11:05:11.213Z,7.80
2023-08-22T11:07:41.579Z,7.40
2023-08-22T11:10:10.424Z,5.65
2023-08-22T11:12:38.740Z,7.28
2023-08-22T11:15:07.682Z,8.65
2023-08-22T11:17:40.601Z,7.18
2023-08-22T11:20:13.125Z,8.73
2023-08-22T11:22:44.231Z,9.60
2023-08-22T11:25:13.734Z,6.38
2023-08-22T11:27:42.456Z,8.05
2023-08-22T11:30:12.250Z,7.57
2023-08-22T11:32:42.389Z,6.68
2023-08-22T11:35:12.626Z,7.90
2023-08-22T11:37:44.189Z,6.47
2023-08-22T11:40:15.661Z,7.22
2023-08-22T11:42:44.283Z,6.95
2023-08-22T11:45:14.519Z,8.10
2023-08-22T11:47:44.528Z,7.07
2023-08-22T11:50:15.468Z,7.95
2023-08-22T11:52:44.202Z,6.40
2023-08-22T11:55:14.149Z,7.95
2023-08-22T11:57:43.930Z,5.30
2023-08-22T12:00:14.391Z,9.30
2023-08-22T12:02:45.503Z,6.15
2023-08-22T12:05:30.571Z,7.93
2023-08-22T12:07:58.893Z,8.63
2023-08-22T12:10:27.644Z,9.35
2023-08-22T12:12:55.813Z,6.55
2023-08-22T12:15:23.844Z,8.75
2023-08-22T12:17:51.873Z,9.30
2023-08-22T12:20:21.262Z,9.45
2023-08-22T12:22:49.251Z,8.20
2023-08-22T12:25:17.955Z,8.35
2023-08-22T12:27:46.183Z,5.00
2023-08-22T12:30:14.710Z,6.63
2023-08-22T12:32:44.018Z,6.38
2023-08-22T12:35:12.382Z,5.95
2023-08-22T12:37:42.110Z,5.40
2023-08-22T12:40:12.545Z,5.13
2023-08-22T12:42:41.674Z,6.07
2023-08-22T12:45:11.197Z,5.22
2023-08-22T12:47:40.766Z,5.13
2023-08-22T12:50:10.195Z,3.58
2023-08-22T12:52:38.729Z,6.90
2023-08-22T12:55:09.286Z,4.38
2023-08-22T12:57:38.520Z,4.43
2023-08-22T13:00:09.487Z,5.47
2023-08-22T13:02:39.142Z,6.45
2023-08-22T13:05:07.764Z,5.13
2023-08-22T13:07:36.261Z,8.80
2023-08-22T13:10:05.859Z,8.27
2023-08-22T13:12:35.853Z,6.85
2023-08-22T13:15:04.838Z,6.03
2023-08-22T13:17:32.992Z,5.35
2023-08-22T13:20:01.526Z,6.35
2023-08-22T13:22:29.656Z,5.45
2023-08-22T13:24:57.666Z,5.38
2023-08-22T13:27:25.660Z,4.88
2023-08-22T13:29:55.062Z,6.32
2023-08-22T13:32:23.057Z,5.15
2023-08-22T13:34:51.161Z,3.88
2023-08-22T13:37:19.619Z,4.13
2023-08-22T13:39:47.768Z,4.10
2023-08-22T13:42:15.762Z,3.80
2023-08-22T13:44:45.163Z,3.65
2023-08-22T13:47:14.588Z,3.85
2023-08-22T13:49:42.672Z,5.47
2023-08-22T13:52:10.771Z,5.15
2023-08-22T13:54:38.772Z,5.35
2023-08-22T13:57:06.908Z,5.28
2023-08-22T13:59:36.935Z,4.88
2023-08-22T14:02:05.083Z,5.82
2023-08-22T14:04:34.872Z,4.93
2023-08-22T14:07:02.939Z,5.07
2023-08-22T14:09:31.064Z,8.23
2023-08-22T14:11:59.069Z,4.50
2023-08-22T14:14:27.107Z,4.85
2023-08-22T14:16:55.157Z,5.40
2023-08-22T14:19:23.288Z,4.03
2023-08-22T14:21:55.061Z,5.90
2023-08-22T14:24:24.429Z,5.53
2023-08-22T14:26:52.476Z,6.97
2023-08-22T14:29:20.711Z,4.97
2023-08-22T14:31:48.758Z,5.55
2023-08-22T14:34:16.777Z,6.00
2023-08-22T14:36:44.864Z,5.85
2023-08-22T14:39:14.352Z,5.10
2023-08-22T14:41:43.013Z,5.45
2023-08-22T14:44:11.763Z,7.28
2023-08-22T14:46:39.937Z,3.70
2023-08-22T14:49:07.953Z,4.50
2023-08-22T14:51:35.982Z,4.60
2023-08-22T14:54:05.715Z,5.93
2023-08-22T14:56:35.100Z,4.95
2023-08-22T14:59:03.253Z,6.55
2023-08-22T15:01:32.199Z,3.90
2023-08-22T15:04:00.330Z,5.65
2023-08-22T15:06:28.516Z,5.28
2023-08-22T15:08:56.532Z,4.65
2023-08-22T15:11:24.681Z,3.70
2023-08-22T15:13:54.082Z,4.45
2023-08-22T15:16:22.124Z,4.40
2023-08-22T15:18:50.802Z,4.00
2023-08-22T15:21:18.817Z,3.40
2023-08-22T15:23:46.979Z,3.80
2023-08-22T15:26:15.033Z,5.65
2023-08-22T15:28:43.083Z,2.28
2023-08-22T15:31:12.508Z,2.88
2023-08-22T15:33:40.671Z,2.88
2023-08-22T15:36:08.893Z,3.25
2023-08-22T15:38:37.373Z,3.20
2023-08-22T15:41:07.047Z,3.30
2023-08-22T15:43:35.223Z,2.45
2023-08-22T15:46:03.570Z,3.03
2023-08-22T15:48:33.056Z,2.78
2023-08-22T15:51:01.167Z,2.92
2023-08-22T15:53:29.349Z,4.28
2023-08-22T15:55:57.350Z,3.05
2023-08-22T15:58:26.485Z,1.98
2023-08-22T16:00:54.701Z,2.55
2023-08-22T16:03:22.908Z,1.63
2023-08-22T16:05:57.886Z,1.05
2023-08-22T16:08:25.958Z,2.42
2023-08-22T16:10:54.822Z,2.17
2023-08-22T16:13:22.957Z,0.60
2023-08-22T16:15:50.947Z,1.35
2023-08-22T16:18:19.007Z,0.85
2023-08-22T16:20:48.773Z,1.67
2023-08-22T16:23:20.056Z,2.03
2023-08-22T16:25:50.371Z,1.75
2023-08-22T16:28:18.612Z,1.80
2023-08-22T16:30:51.051Z,2.75
2023-08-22T16:33:19.120Z,1.25
2023-08-22T16:35:54.080Z,1.35
2023-08-22T16:38:24.466Z,1.73
2023-08-22T16:40:56.192Z,1.25
2023-08-22T16:43:25.124Z,1.13
2023-08-22T16:45:54.563Z,1.70
2023-08-22T16:48:22.676Z,1.58
2023-08-22T16:50:51.944Z,1.40
2023-08-22T16:53:20.628Z,3.65
2023-08-22T16:55:51.709Z,2.10
2023-08-22T16:58:20.047Z,1.35
2023-08-22T17:00:49.230Z,2.42
2023-08-22T17:03:17.383Z,2.25
2023-08-22T17:05:46.609Z,2.38
2023-08-22T17:08:15.109Z,2.38
2023-08-22T17:10:43.319Z,2.45
2023-08-22T17:13:12.771Z,3.63
2023-08-22T17:15:42.582Z,2.92
2023-08-22T17:18:10.651Z,1.50
2023-08-22T17:20:38.724Z,1.75
2023-08-22T17:23:06.738Z,2.65
2023-08-22T17:25:34.717Z,2.30
2023-08-22T17:28:03.528Z,3.45
2023-08-22T17:30:32.998Z,2.90
2023-08-22T17:33:01.276Z,2.60
2023-08-22T17:35:29.390Z,1.90
2023-08-22T17:37:57.391Z,2.53
2023-08-22T17:40:25.415Z,2.60
2023-08-22T17:42:53.638Z,2.38
2023-08-22T17:45:21.629Z,3.40
2023-08-22T17:47:51.270Z,2.20
2023-08-22T17:50:19.648Z,2.75
2023-08-22T17:52:47.693Z,3.53
2023-08-22T17:55:15.744Z,1.83
2023-08-22T17:57:44.344Z,3.17
2023-08-22T18:00:14.126Z,3.03
2023-08-22T18:02:42.129Z,2.78
2023-08-22T18:05:11.751Z,3.67
2023-08-22T18:07:39.964Z,3.20
2023-08-22T18:10:09.351Z,5.43
2023-08-22T18:12:37.462Z,3.08
2023-08-22T18:15:06.510Z,3.13
2023-08-22T18:17:34.745Z,3.83
2023-08-22T18:20:03.718Z,3.15
2023-08-22T18:22:33.216Z,4.57
2023-08-22T18:25:01.432Z,3.58
2023-08-22T18:27:29.763Z,4.50
2023-08-22T18:29:57.942Z,2.38
2023-08-22T18:32:26.041Z,2.92
2023-08-22T18:34:54.233Z,3.88
2023-08-22T18:37:22.978Z,5.30
2023-08-22T18:39:52.493Z,4.13
2023-08-22T18:42:20.547Z,3.92
2023-08-22T18:44:50.339Z,3.50
2023-08-22T18:47:18.464Z,3.17
2023-08-22T18:49:46.576Z,4.30
2023-08-22T18:52:14.715Z,4.70
2023-08-22T18:54:43.031Z,3.58
2023-08-22T18:57:12.480Z,4.05
2023-08-22T18:59:40.505Z,2.83
2023-08-22T19:02:08.645Z,4.32
2023-08-22T19:04:37.714Z,3.70
2023-08-22T19:07:06.036Z,3.47
2023-08-22T19:09:34.234Z,3.97
2023-08-22T19:12:02.349Z,3.40
2023-08-22T19:14:31.870Z,3.83
2023-08-22T19:16:59.995Z,3.55
2023-08-22T19:19:28.119Z,3.50
2023-08-22T19:21:56.328Z,3.95
2023-08-22T19:24:24.519Z,5.25
2023-08-22T19:26:53.380Z,3.88
2023-08-22T19:29:21.413Z,5.65
2023-08-22T19:31:55.721Z,4.00
2023-08-22T19:34:34.744Z,3.47
2023-08-22T19:37:02.774Z,4.10
2023-08-22T19:39:31.109Z,4.47
2023-08-22T19:41:59.173Z,4.57
2023-08-22T19:44:27.189Z,3.88
2023-08-22T19:46:56.855Z,4.80
2023-08-22T19:49:25.004Z,5.03
2023-08-22T19:51:53.148Z,4.90
2023-08-22T19:54:21.266Z,3.97
2023-08-22T19:56:49.310Z,6.53
2023-08-22T19:59:17.324Z,4.57
2023-08-22T20:01:45.676Z,5.57
2023-08-22T20:04:15.907Z,5.30
2023-08-22T20:06:44.032Z,4.70
2023-08-22T20:09:13.076Z,4.43
2023-08-22T20:11:41.540Z,5.00
2023-08-22T20:14:10.255Z,4.60
2023-08-22T20:16:39.179Z,3.83
2023-08-22T20:19:07.278Z,6.40
2023-08-22T20:21:36.719Z,4.65
2023-08-22T20:24:04.887Z,5.65
2023-08-22T20:26:40.436Z,5.07
2023-08-22T20:29:09.922Z,5.03
2023-08-22T20:31:39.665Z,4.78
2023-08-22T20:34:07.932Z,5.72
2023-08-22T20:36:37.641Z,5.05
2023-08-22T20:39:05.784Z,4.43
2023-08-22T20:41:33.880Z,5.53
2023-08-22T20:44:01.954Z,5.07
2023-08-22T20:46:30.204Z,6.97
2023-08-22T20:48:58.366Z,5.60
2023-08-22T20:51:26.425Z,5.47
2023-08-22T20:53:55.850Z,5.30
2023-08-22T20:56:23.934Z,5.32
2023-08-22T20:58:51.961Z,5.70
2023-08-22T21:01:20.072Z,6.63
2023-08-22T21:03:48.374Z,4.93
2023-08-22T21:06:16.615Z,8.65
2023-08-22T21:08:45.220Z,7.43
2023-08-22T21:11:14.774Z,5.78
2023-08-22T21:13:42.804Z,5.22
2023-08-22T21:16:10.835Z,4.55
2023-08-22T21:18:38.936Z,4.95
2023-08-22T21:21:06.980Z,5.80
2023-08-22T21:23:36.890Z,4.95
2023-08-22T21:26:05.008Z,5.05
2023-08-22T21:28:34.505Z,4.68
2023-08-22T21:31:02.657Z,4.22
2023-08-22T21:33:30.724Z,5.80
2023-08-22T21:35:58.904Z,7.93
2023-08-22T21:38:26.975Z,6.13
2023-08-22T21:40:55.365Z,5.65
2023-08-22T21:43:23.517Z,5.72
2023-08-22T21:45:52.964Z,6.82
2023-08-22T21:48:21.025Z,4.57
2023-08-22T21:50:49.102Z,5.70
2023-08-22T21:53:17.108Z,5.95
2023-08-22T21:55:45.474Z,4.80
2023-08-22T21:58:13.595Z,5.53
2023-08-22T22:00:41.604Z,6.35
2023-08-22T22:03:11.148Z,5.95
2023-08-22T22:05:39.253Z,5.63
2023-08-22T22:08:08.241Z,4.60
2023-08-22T22:10:36.351Z,4.50
2023-08-22T22:13:04.516Z,4.75
2023-08-22T22:15:32.592Z,6.40
2023-08-22T22:18:00.727Z,4.90
2023-08-22T22:20:30.424Z,4.32
2023-08-22T22:22:58.502Z,6.22
2023-08-22T22:25:26.547Z,8.25
2023-08-22T22:27:54.629Z,8.07
2023-08-22T22:30:22.847Z,6.63
2023-08-22T22:32:51.005Z,8.68
2023-08-22T22:35:19.414Z,6.55
2023-08-22T22:37:49.057Z,6.35
2023-08-22T22:40:17.432Z,5.30
2023-08-22T22:42:45.538Z,7.03
2023-08-22T22:45:13.722Z,6.43
2023-08-22T22:47:42.090Z,7.15
2023-08-22T22:50:12.189Z,7.25
2023-08-22T22:52:40.247Z,5.82
2023-08-22T22:55:10.147Z,6.10
2023-08-22T22:57:38.340Z,5.32
2023-08-22T23:00:09.895Z,5.53
2023-08-22T23:02:38.092Z,7.72
2023-08-22T23:05:06.820Z,6.13
2023-08-22T23:07:34.869Z,8.63
2023-08-22T23:10:02.978Z,6.43
2023-08-22T23:12:34.010Z,6.07
2023-08-22T23:15:02.105Z,5.97
2023-08-22T23:17:35.480Z,6.30
2023-08-22T23:20:06.474Z,7.22
2023-08-22T23:22:34.659Z,5.90
2023-08-22T23:25:02.788Z,5.90
2023-08-22T23:27:32.933Z,6.78
2023-08-22T23:30:01.224Z,4.80
2023-08-22T23:32:30.779Z,7.15
2023-08-22T23:35:00.951Z,6.30
2023-08-22T23:37:29.526Z,7.80
2023-08-22T23:39:58.913Z,6.80
2023-08-22T23:42:27.068Z,6.07
2023-08-22T23:44:56.518Z,6.57
2023-08-22T23:47:24.663Z,6.72
2023-08-22T23:49:52.844Z,8.00
2023-08-22T23:52:20.859Z,9.05
2023-08-22T23:54:48.930Z,8.25
2023-08-22T23:57:17.008Z,6.50
2023-08-22T23:59:45.083Z,7.55
